sensor_id;sensor_type;location;lat;lon;timestamp;pressure;altitude;pressure_sealevel;temperature;humidity
54806;BME280;40700;55.776;37.496;2022-08-11T15:29:08;100695.78;;;22.28;100.00
54806;BME280;40700;55.776;37.496;2022-08-11T15:32:05;100622.59;;;23.37;98.56
54806;BME280;40700;55.776;37.496;2022-08-11T15:34:59;100589.75;;;23.92;69.64
54806;BME280;40700;55.776;37.496;2022-08-11T15:37:45;100593.06;;;24.21;65.20
54806;BME280;40700;55.776;37.496;2022-08-11T15:40:27;100608.59;;;24.42;63.70
54806;BME280;40700;55.776;37.496;2022-08-11T15:43:31;100609.78;;;24.56;61.45
54806;BME280;40700;55.776;37.496;2022-08-11T15:46:34;100604.88;;;24.58;60.75
54806;BME280;40700;55.776;37.496;2022-08-11T15:49:10;100614.16;;;24.57;60.10
54806;BME280;40700;55.776;37.496;2022-08-11T15:51:44;100614.75;;;24.60;59.19
54806;BME280;40700;55.776;37.496;2022-08-11T15:54:14;100611.13;;;24.54;58.99
54806;BME280;40700;55.776;37.496;2022-08-11T15:56:42;100621.59;;;24.62;58.34
54806;BME280;40700;55.776;37.496;2022-08-11T15:59:10;100611.38;;;24.52;58.01
54806;BME280;40700;55.776;37.496;2022-08-11T16:02:10;100619.66;;;24.57;57.36
54806;BME280;40700;55.776;37.496;2022-08-11T16:04:52;100621.44;;;24.47;57.10
54806;BME280;40700;55.776;37.496;2022-08-11T16:07:22;100621.53;;;24.52;56.93
54806;BME280;40700;55.776;37.496;2022-08-11T16:10:05;100616.91;;;24.57;56.71
54806;BME280;40700;55.776;37.496;2022-08-11T16:12:39;100595.78;;;24.48;56.63
54806;BME280;40700;55.776;37.496;2022-08-11T16:15:08;100616.72;;;24.69;56.41
54806;BME280;40700;55.776;37.496;2022-08-11T16:36:07;100610.97;;;25.50;55.46
54806;BME280;40700;55.776;37.496;2022-08-11T16:38:54;100604.41;;;24.67;55.60
54806;BME280;62866;55.776;37.496;2022-08-11T16:41:22;100603.56;;;24.07;55.64
54806;BME280;62866;55.776;37.496;2022-08-11T16:44:11;100609.06;;;23.64;56.38
54806;BME280;62866;55.776;37.496;2022-08-11T16:46:57;100606.19;;;23.32;55.41
54806;BME280;62866;55.776;37.496;2022-08-11T16:49:37;100607.28;;;23.14;55.40
54806;BME280;62866;55.776;37.496;2022-08-11T16:52:05;100612.84;;;23.02;54.26
54806;BME280;62866;55.776;37.496;2022-08-11T16:54:35;100616.25;;;22.93;55.34
54806;BME280;62866;55.776;37.496;2022-08-11T16:57:07;100615.03;;;22.84;54.95
54806;BME280;62866;55.776;37.496;2022-08-11T16:59:53;100615.56;;;22.69;55.14
54806;BME280;62866;55.776;37.496;2022-08-11T17:02:22;100618.38;;;22.57;55.64
54806;BME280;62866;55.776;37.496;2022-08-11T17:05:14;100613.25;;;22.44;55.72
54806;BME280;62866;55.776;37.496;2022-08-11T17:08:00;100606.47;;;22.30;55.87
54806;BME280;62866;55.776;37.496;2022-08-11T17:13:54;100628.47;;;22.12;56.44
54806;BME280;62866;55.776;37.496;2022-08-11T17:16:23;100621.50;;;22.04;55.95
54806;BME280;62866;55.776;37.496;2022-08-11T17:19:09;100620.69;;;22.04;55.12
54806;BME280;62866;55.776;37.496;2022-08-11T17:21:47;100632.31;;;21.99;55.57
54806;BME280;62866;55.776;37.496;2022-08-11T17:24:33;100631.09;;;21.95;54.58
54806;BME280;62866;55.776;37.496;2022-08-11T17:27:00;100627.47;;;21.89;55.19
54806;BME280;62866;55.776;37.496;2022-08-11T17:29:46;100627.69;;;21.88;54.86
54806;BME280;62866;55.776;37.496;2022-08-11T17:32:16;100626.03;;;21.87;53.99
54806;BME280;62866;55.776;37.496;2022-08-11T17:35:14;100629.00;;;21.85;54.23
54806;BME280;62866;55.776;37.496;2022-08-11T17:38:06;100632.00;;;21.84;53.69
54806;BME280;62866;55.776;37.496;2022-08-11T17:40:35;100630.34;;;21.83;53.33
54806;BME280;62866;55.776;37.496;2022-08-11T17:43:03;100634.94;;;21.82;53.13
54806;BME280;62866;55.776;37.496;2022-08-11T17:45:49;100623.25;;;21.70;53.42
54806;BME280;62866;55.776;37.496;2022-08-11T17:48:36;100638.88;;;21.75;53.37
54806;BME280;62866;55.776;37.496;2022-08-11T17:51:21;100645.63;;;21.72;54.28
54806;BME280;62866;55.776;37.496;2022-08-11T17:54:06;100640.66;;;21.69;53.73
54806;BME280;62866;55.776;37.496;2022-08-11T17:56:52;100633.94;;;21.60;54.23
54806;BME280;62866;55.776;37.496;2022-08-11T17:59:38;100650.16;;;21.55;54.20
54806;BME280;62866;55.776;37.496;2022-08-11T18:02:55;100652.78;;;21.50;54.49
54806;BME280;62866;55.776;37.496;2022-08-11T18:05:35;100643.66;;;21.44;54.67
54806;BME280;62866;55.776;37.496;2022-08-11T18:08:07;100643.31;;;21.41;54.50
54806;BME280;62866;55.776;37.496;2022-08-11T18:10:52;100650.44;;;21.42;54.73
54806;BME280;62866;55.776;37.496;2022-08-11T18:13:39;100656.94;;;21.41;54.86
54806;BME280;62866;55.776;37.496;2022-08-11T18:16:24;100645.34;;;21.34;54.94
54806;BME280;62866;55.776;37.496;2022-08-11T18:19:09;100664.72;;;21.37;55.15
54806;BME280;62866;55.776;37.496;2022-08-11T18:22:21;100670.41;;;21.36;55.14
54806;BME280;62866;55.776;37.496;2022-08-11T18:25:09;100670.06;;;21.32;55.54
54806;BME280;62866;55.776;37.496;2022-08-11T18:27:54;100680.13;;;21.32;55.78
54806;BME280;62866;55.776;37.496;2022-08-11T18:30:41;100670.53;;;21.29;55.83
54806;BME280;62866;55.776;37.496;2022-08-11T18:33:35;100663.94;;;21.25;56.41
54806;BME280;62866;55.776;37.496;2022-08-11T18:36:22;100678.00;;;21.22;57.20
54806;BME280;62866;55.776;37.496;2022-08-11T18:39:12;100682.47;;;21.16;56.81
54806;BME280;62866;55.776;37.496;2022-08-11T18:42:01;100676.66;;;21.13;56.65
54806;BME280;62866;55.776;37.496;2022-08-11T18:44:48;100685.03;;;21.11;56.82
54806;BME280;62866;55.776;37.496;2022-08-11T18:47:35;100679.84;;;21.10;56.98
54806;BME280;62866;55.776;37.496;2022-08-11T18:50:20;100681.16;;;21.07;57.35
54806;BME280;62866;55.776;37.496;2022-08-11T18:53:05;100680.78;;;21.04;57.50
54806;BME280;62866;55.776;37.496;2022-08-11T18:55:52;100677.25;;;20.92;57.67
54806;BME280;62866;55.776;37.496;2022-08-11T18:58:40;100696.38;;;20.97;57.06
54806;BME280;62866;55.776;37.496;2022-08-11T19:01:26;100685.97;;;20.94;57.79
54806;BME280;62866;55.776;37.496;2022-08-11T19:04:12;100695.44;;;20.91;58.28
54806;BME280;62866;55.776;37.496;2022-08-11T19:06:57;100683.03;;;20.83;57.69
54806;BME280;62866;55.776;37.496;2022-08-11T19:09:44;100682.66;;;20.80;58.44
54806;BME280;62866;55.776;37.496;2022-08-11T19:12:36;100695.53;;;20.73;58.69
54806;BME280;62866;55.776;37.496;2022-08-11T19:15:22;100687.00;;;20.69;58.21
54806;BME280;62866;55.776;37.496;2022-08-11T19:18:09;100691.25;;;20.65;58.78
54806;BME280;62866;55.776;37.496;2022-08-11T19:20:55;100690.28;;;20.60;57.94
54806;BME280;62866;55.776;37.496;2022-08-11T19:23:44;100699.84;;;20.62;58.81
54806;BME280;62866;55.776;37.496;2022-08-11T19:26:31;100695.72;;;20.60;59.13
54806;BME280;62866;55.776;37.496;2022-08-11T19:29:18;100695.13;;;20.58;58.91
54806;BME280;62866;55.776;37.496;2022-08-11T19:32:03;100694.53;;;20.56;59.69
54806;BME280;62866;55.776;37.496;2022-08-11T19:34:48;100685.66;;;20.49;58.75
54806;BME280;62866;55.776;37.496;2022-08-11T19:37:34;100692.00;;;20.42;59.72
54806;BME280;62866;55.776;37.496;2022-08-11T19:40:19;100701.56;;;20.45;59.50
54806;BME280;62866;55.776;37.496;2022-08-11T19:43:04;100700.75;;;20.44;59.58
54806;BME280;62866;55.776;37.496;2022-08-11T19:45:50;100698.84;;;20.45;59.43
54806;BME280;62866;55.776;37.496;2022-08-11T19:48:36;100699.22;;;20.49;59.42
54806;BME280;62866;55.776;37.496;2022-08-11T19:51:20;100697.19;;;20.44;58.81
54806;BME280;62866;55.776;37.496;2022-08-11T19:54:05;100701.78;;;20.43;59.62
54806;BME280;62866;55.776;37.496;2022-08-11T19:56:50;100708.88;;;20.44;60.16
54806;BME280;62866;55.776;37.496;2022-08-11T19:59:35;100706.66;;;20.41;60.35
54806;BME280;62866;55.776;37.496;2022-08-11T20:02:20;100701.75;;;20.32;60.07
54806;BME280;62866;55.776;37.496;2022-08-11T20:05:05;100709.50;;;20.28;59.26
54806;BME280;62866;55.776;37.496;2022-08-11T20:07:51;100700.84;;;20.20;60.55
54806;BME280;62866;55.776;37.496;2022-08-11T20:10:36;100703.44;;;20.15;60.79
54806;BME280;62866;55.776;37.496;2022-08-11T20:13:24;100706.59;;;20.12;61.25
54806;BME280;62866;55.776;37.496;2022-08-11T20:16:11;100715.44;;;20.07;61.07
54806;BME280;62866;55.776;37.496;2022-08-11T20:18:58;100712.78;;;20.00;61.30
54806;BME280;62866;55.776;37.496;2022-08-11T20:21:44;100710.53;;;19.97;61.56
54806;BME280;62866;55.776;37.496;2022-08-11T20:24:29;100715.81;;;19.92;61.37
54806;BME280;62866;55.776;37.496;2022-08-11T20:27:14;100714.22;;;19.85;61.73
54806;BME280;62866;55.776;37.496;2022-08-11T20:30:00;100719.31;;;19.81;62.26
54806;BME280;62866;55.776;37.496;2022-08-11T20:32:45;100720.56;;;19.79;61.73
54806;BME280;62866;55.776;37.496;2022-08-11T20:35:32;100716.66;;;19.75;61.82
54806;BME280;62866;55.776;37.496;2022-08-11T20:38:18;100712.94;;;19.69;62.10
54806;BME280;62866;55.776;37.496;2022-08-11T20:41:06;100713.25;;;19.61;62.62
54806;BME280;62866;55.776;37.496;2022-08-11T20:43:52;100722.91;;;19.57;62.54
54806;BME280;62866;55.776;37.496;2022-08-11T20:46:39;100719.59;;;19.55;62.88
54806;BME280;62866;55.776;37.496;2022-08-11T20:49:26;100715.06;;;19.49;62.93
54806;BME280;62866;55.776;37.496;2022-08-11T20:52:11;100716.13;;;19.48;62.98
54806;BME280;62866;55.776;37.496;2022-08-11T20:54:57;100712.97;;;19.44;62.96
54806;BME280;62866;55.776;37.496;2022-08-11T20:57:42;100715.53;;;19.39;63.06
54806;BME280;62866;55.776;37.496;2022-08-11T21:00:27;100718.25;;;19.39;63.28
54806;BME280;62866;55.776;37.496;2022-08-11T21:03:12;100722.22;;;19.37;62.59
54806;BME280;62866;55.776;37.496;2022-08-11T21:05:56;100721.19;;;19.38;62.39
54806;BME280;62866;55.776;37.496;2022-08-11T21:08:42;100713.47;;;19.34;63.52
54806;BME280;62866;55.776;37.496;2022-08-11T21:11:27;100724.72;;;19.38;63.21
54806;BME280;62866;55.776;37.496;2022-08-11T21:14:12;100730.97;;;19.39;61.79
54806;BME280;62866;55.776;37.496;2022-08-11T21:16:59;100725.69;;;19.44;61.83
54806;BME280;62866;55.776;37.496;2022-08-11T21:19:50;100728.38;;;19.50;61.99
54806;BME280;62866;55.776;37.496;2022-08-11T21:22:40;100726.50;;;19.51;62.34
54806;BME280;62866;55.776;37.496;2022-08-11T21:25:26;100731.75;;;19.46;62.55
54806;BME280;62866;55.776;37.496;2022-08-11T21:28:11;100726.75;;;19.43;62.50
54806;BME280;62866;55.776;37.496;2022-08-11T21:30:57;100742.88;;;19.38;62.81
54806;BME280;62866;55.776;37.496;2022-08-11T21:33:44;100742.72;;;19.32;63.00
54806;BME280;62866;55.776;37.496;2022-08-11T21:36:30;100740.66;;;19.28;63.19
54806;BME280;62866;55.776;37.496;2022-08-11T21:39:16;100743.81;;;19.25;63.29
54806;BME280;62866;55.776;37.496;2022-08-11T21:42:03;100742.81;;;19.19;63.35
54806;BME280;62866;55.776;37.496;2022-08-11T21:44:48;100747.63;;;19.17;63.36
54806;BME280;62866;55.776;37.496;2022-08-11T21:47:33;100748.31;;;19.13;63.30
54806;BME280;62866;55.776;37.496;2022-08-11T21:50:17;100742.94;;;19.06;63.48
54806;BME280;62866;55.776;37.496;2022-08-11T21:53:02;100745.03;;;19.04;63.57
54806;BME280;62866;55.776;37.496;2022-08-11T21:55:47;100746.16;;;18.97;63.85
54806;BME280;62866;55.776;37.496;2022-08-11T21:58:32;100750.72;;;18.96;64.35
54806;BME280;62866;55.776;37.496;2022-08-11T22:01:17;100756.59;;;18.93;64.04
54806;BME280;62866;55.776;37.496;2022-08-11T22:04:02;100762.69;;;18.88;64.14
54806;BME280;62866;55.776;37.496;2022-08-11T22:06:48;100754.75;;;18.87;64.28
54806;BME280;62866;55.776;37.496;2022-08-11T22:09:33;100763.31;;;18.84;64.04
54806;BME280;62866;55.776;37.496;2022-08-11T22:12:18;100764.81;;;18.80;64.40
54806;BME280;62866;55.776;37.496;2022-08-11T22:15:02;100758.78;;;18.78;64.84
54806;BME280;62866;55.776;37.496;2022-08-11T22:17:46;100755.06;;;18.72;64.82
54806;BME280;62866;55.776;37.496;2022-08-11T22:20:31;100765.06;;;18.72;64.79
54806;BME280;62866;55.776;37.496;2022-08-11T22:23:16;100762.16;;;18.67;65.06
54806;BME280;62866;55.776;37.496;2022-08-11T22:26:01;100764.50;;;18.63;64.82
54806;BME280;62866;55.776;37.496;2022-08-11T22:28:46;100768.88;;;18.64;64.87
54806;BME280;62866;55.776;37.496;2022-08-11T22:31:31;100761.19;;;18.61;65.12
54806;BME280;62866;55.776;37.496;2022-08-11T22:34:17;100765.38;;;18.57;64.96
54806;BME280;62866;55.776;37.496;2022-08-11T22:37:02;100755.97;;;18.53;65.05
54806;BME280;62866;55.776;37.496;2022-08-11T22:39:47;100764.09;;;18.53;64.03
54806;BME280;62866;55.776;37.496;2022-08-11T22:42:32;100762.44;;;18.52;64.72
54806;BME280;62866;55.776;37.496;2022-08-11T22:45:18;100765.16;;;18.52;65.01
54806;BME280;62866;55.776;37.496;2022-08-11T22:48:06;100769.34;;;18.48;65.19
54806;BME280;62866;55.776;37.496;2022-08-11T22:50:52;100773.31;;;18.45;65.34
54806;BME280;62866;55.776;37.496;2022-08-11T22:53:38;100755.44;;;18.38;65.30
54806;BME280;62866;55.776;37.496;2022-08-11T22:56:23;100775.03;;;18.40;65.37
54806;BME280;62866;55.776;37.496;2022-08-11T22:59:10;100778.56;;;18.40;65.68
54806;BME280;62866;55.776;37.496;2022-08-11T23:01:55;100774.19;;;18.39;65.58
54806;BME280;62866;55.776;37.496;2022-08-11T23:04:39;100781.69;;;18.37;65.60
54806;BME280;62866;55.776;37.496;2022-08-11T23:07:23;100770.44;;;18.34;65.53
54806;BME280;62866;55.776;37.496;2022-08-11T23:10:08;100772.31;;;18.33;65.77
54806;BME280;62866;55.776;37.496;2022-08-11T23:12:53;100775.47;;;18.30;65.90
54806;BME280;62866;55.776;37.496;2022-08-11T23:15:39;100765.28;;;18.26;65.80
54806;BME280;62866;55.776;37.496;2022-08-11T23:18:25;100772.34;;;18.27;65.98
54806;BME280;62866;55.776;37.496;2022-08-11T23:21:11;100773.41;;;18.26;66.20
54806;BME280;62866;55.776;37.496;2022-08-11T23:23:58;100777.38;;;18.23;66.27
54806;BME280;62866;55.776;37.496;2022-08-11T23:26:42;100770.94;;;18.17;66.03
54806;BME280;62866;55.776;37.496;2022-08-11T23:29:28;100782.78;;;18.23;65.07
54806;BME280;62866;55.776;37.496;2022-08-11T23:32:16;100790.88;;;18.30;64.83
54806;BME280;62866;55.776;37.496;2022-08-11T23:35:01;100786.94;;;18.32;65.81
54806;BME280;62866;55.776;37.496;2022-08-11T23:37:46;100784.44;;;18.31;66.01
54806;BME280;62866;55.776;37.496;2022-08-11T23:40:30;100780.69;;;18.25;66.16
54806;BME280;62866;55.776;37.496;2022-08-11T23:43:21;100785.09;;;18.19;66.18
54806;BME280;62866;55.776;37.496;2022-08-11T23:46:05;100792.81;;;18.16;66.44
54806;BME280;62866;55.776;37.496;2022-08-11T23:48:56;100796.16;;;18.11;66.41
54806;BME280;62866;55.776;37.496;2022-08-11T23:51:41;100793.25;;;18.06;66.56
54806;BME280;62866;55.776;37.496;2022-08-11T23:54:27;100787.22;;;18.04;66.96
54806;BME280;62866;55.776;37.496;2022-08-11T23:57:11;100797.63;;;18.01;67.06
54806;BME280;62866;55.776;37.496;2022-08-11T23:59:55;100795.13;;;17.99;66.99
